Bishop, Texas
Current Conditions -  °F | °C
As of 1:56 AM on Monday 26 Jan 2015 (Local Time) from KNQI Reporting Station
Clear Clear  
Wind Chill: 47°   Ceiling: Unl
Heat Index: 49°   Visibility: 10mi
Dew Point: 42°   Wind: 5mph
Humidity: 77%   Direction: 270°W
Pressure: 30.23"   Gusts: NA
Location:  27.59°N, 97.8°W
Report Text: KNQI 260756Z AUTO 27004KT 10SM CLR 09/06 A3023 RMK AO2 SLP234 T00940056 TSNO $
Loading
Personal Weather Stations






























Interactive Weather Map New forecast layout! Learn more

10-Day Weather Forecast

Advertisements
Track Severe Weather on mobile